Time;durP1;ratioP1;P1;durP2;ratioP2;P2;SDS_P1;SDS_P2;PMS_P1;PMS_P2;Temp;Humidity;BMP_temperature;BMP_pressure;BME280_temperature;BME280_humidity;BME280_pressure;Samples;Min_cycle;Max_cycle;Signal;HPM_P1;HPM_P2
2022/11/03 00:01:38;;;;;;;13.05;3.25;;;;;;;11.42;96.91;101280.97;5016439;28;20021;-70
2022/11/03 00:04:05;;;;;;;21.23;4.43;;;;;;;11.43;96.10;101273.66;5032742;28;20041;-71
2022/11/03 00:06:30;;;;;;;16.75;3.70;;;;;;;11.43;95.94;101271.81;5032952;28;20104;-70
2022/11/03 00:09:00;;;;;;;19.02;4.25;;;;;;;11.42;95.27;101264.72;5032923;28;20104;-71
2022/11/03 00:11:26;;;;;;;18.63;3.75;;;;;;;11.43;95.02;101269.09;5033937;28;20380;-71
2022/11/03 00:13:52;;;;;;;14.48;3.50;;;;;;;11.43;96.02;101266.38;5032328;28;20033;-68
2022/11/03 00:16:17;;;;;;;17.88;3.78;;;;;;;11.47;94.00;101266.75;5022658;28;20465;-70
2022/11/03 00:18:42;;;;;;;19.05;3.90;;;;;;;11.43;94.89;101265.53;5014073;28;20059;-68
2022/11/03 00:21:10;;;;;;;15.50;3.67;;;;;;;11.45;94.41;101256.16;5013805;28;20063;-69
2022/11/03 00:23:38;;;;;;;17.95;4.38;;;;;;;11.42;96.57;101255.78;5018968;28;20056;-70
2022/11/03 00:26:05;;;;;;;16.65;3.83;;;;;;;11.40;97.17;101250.56;5033104;28;20465;-71
2022/11/03 00:28:32;;;;;;;15.13;3.83;;;;;;;11.45;96.79;101253.44;5033322;28;20099;-73
2022/11/03 00:30:58;;;;;;;17.08;3.85;;;;;;;11.43;95.08;101250.13;5032741;28;20032;-71
2022/11/03 00:33:25;;;;;;;15.25;3.35;;;;;;;11.45;94.59;101248.00;5029242;28;20025;-72
2022/11/03 00:35:56;;;;;;;16.50;3.72;;;;;;;11.45;95.29;101236.34;5033353;28;20163;-73
2022/11/03 00:38:21;;;;;;;15.68;3.63;;;;;;;11.46;95.13;101232.59;5031925;28;20369;-72
2022/11/03 00:41:01;;;;;;;18.23;3.75;;;;;;;11.48;93.92;101225.06;5032985;28;20022;-71
2022/11/03 00:43:28;;;;;;;16.92;3.55;;;;;;;11.49;93.66;101226.75;5032321;28;20035;-72
2022/11/03 00:45:54;;;;;;;20.10;3.67;;;;;;;11.48;94.77;101223.19;5031099;28;20026;-68
2022/11/03 00:48:29;;;;;;;12.68;3.35;;;;;;;11.49;95.06;101207.78;5012949;28;20025;-70
2022/11/03 00:51:11;;;;;;;16.85;4.05;;;;;;;11.51;94.29;101208.38;5013454;28;20092;-71
2022/11/03 00:53:44;;;;;;;17.20;3.80;;;;;;;11.50;95.15;101206.69;5018215;28;20501;-71
2022/11/03 00:56:14;;;;;;;17.25;3.88;;;;;;;11.52;94.07;101212.75;5031933;28;20298;-71
2022/11/03 00:58:41;;;;;;;13.88;3.40;;;;;;;11.52;94.17;101200.00;5033410;28;20036;-69
2022/11/03 01:01:12;;;;;;;15.52;3.47;;;;;;;11.56;93.28;101194.16;5028169;28;20021;-69
2022/11/03 01:03:39;;;;;;;14.88;3.47;;;;;;;11.55;94.85;101195.19;5031415;28;20030;-71
2022/11/03 01:08:51;;;;;;;14.95;3.75;;;;;;;11.59;93.41;101182.84;5032934;28;20037;-69
2022/11/03 01:14:04;;;;;;;18.23;3.60;;;;;;;11.62;92.91;101183.22;5031530;28;20091;-72
2022/11/03 01:16:30;;;;;;;11.57;3.10;;;;;;;11.61;94.61;101178.03;5032902;28;20045;-72
2022/11/03 01:18:56;;;;;;;16.30;3.58;;;;;;;11.63;94.16;101178.66;5032222;28;20127;-70
2022/11/03 01:21:22;;;;;;;13.18;3.38;;;;;;;11.64;92.89;101177.56;5031186;28;20037;-69
2022/11/03 01:23:48;;;;;;;14.82;3.55;;;;;;;11.66;92.42;101179.03;5031338;28;20379;-72
2022/11/03 01:26:13;;;;;;;19.33;3.80;;;;;;;11.67;92.66;101172.56;5032366;28;20449;-71
2022/11/03 01:28:41;;;;;;;13.07;3.30;;;;;;;11.68;92.96;101178.78;5032389;28;20048;-70
2022/11/03 01:31:11;;;;;;;15.07;3.42;;;;;;;11.68;93.11;101166.09;5032701;28;20025;-72
2022/11/03 01:33:37;;;;;;;18.47;3.17;;;;;;;11.69;93.19;101156.88;5030050;28;20025;-68
2022/11/03 01:36:03;;;;;;;16.95;3.70;;;;;;;11.72;92.56;101161.03;5032472;28;20021;-71
2022/11/03 01:38:32;;;;;;;19.35;3.45;;;;;;;11.71;92.41;101151.25;5032714;28;20426;-73
2022/11/03 01:40:59;;;;;;;17.90;3.88;;;;;;;11.72;92.44;101163.75;5032492;28;20025;-72
2022/11/03 01:43:26;;;;;;;13.68;3.33;;;;;;;11.73;92.36;101140.16;5031263;28;20052;-72
2022/11/03 01:46:12;;;;;;;15.80;4.38;;;;;;;11.74;93.20;101137.22;5032374;28;20033;-70
2022/11/03 01:48:41;;;;;;;15.98;3.67;;;;;;;11.70;92.51;101131.44;5026855;28;20029;-72
2022/11/03 01:51:10;;;;;;;13.27;3.63;;;;;;;11.69;93.43;101120.81;5032226;28;20025;-73
2022/11/03 01:53:40;;;;;;;14.98;3.30;;;;;;;11.72;93.42;101133.09;5031025;28;20031;-71
2022/11/03 01:56:06;;;;;;;15.05;3.50;;;;;;;11.69;94.37;101118.94;5031837;28;20025;-72
2022/11/03 01:58:36;;;;;;;15.02;4.05;;;;;;;11.67;97.10;101128.34;5032061;28;20021;-70
2022/11/03 02:01:01;;;;;;;16.00;3.58;;;;;;;11.71;95.11;101126.84;5029871;28;20053;-72
2022/11/03 02:03:33;;;;;;;13.40;3.47;;;;;;;11.72;95.46;101131.22;5021426;28;20074;-71
2022/11/03 02:06:01;;;;;;;16.05;3.92;;;;;;;11.73;97.05;101130.16;5039112;28;20029;-69
2022/11/03 02:08:42;;;;;;;16.42;3.88;;;;;;;11.75;96.29;101114.50;5031671;28;20415;-71
2022/11/03 02:13:51;;;;;;;15.70;3.58;;;;;;;11.76;94.97;101113.44;5031194;28;20087;-71
2022/11/03 02:16:19;;;;;;;18.23;3.72;;;;;;;11.76;95.52;101109.88;5032291;28;20029;-73
2022/11/03 02:18:46;;;;;;;14.50;3.72;;;;;;;11.76;95.24;101112.59;5030251;28;20112;-70
2022/11/03 02:21:25;;;;;;;10.38;3.40;;;;;;;11.75;95.03;101100.94;5031955;28;20411;-73
2022/11/03 02:24:17;;;;;;;13.30;3.20;;;;;;;11.76;95.79;101097.19;5032270;28;20036;-70
2022/11/03 02:26:47;;;;;;;13.02;3.40;;;;;;;11.72;96.14;101087.03;5035548;28;20104;-72
2022/11/03 02:29:13;;;;;;;14.68;3.78;;;;;;;11.74;95.71;101087.59;5035505;28;20141;-71
2022/11/03 02:31:49;;;;;;;15.90;3.83;;;;;;;11.72;95.11;101085.13;5035955;28;20497;-70
2022/11/03 02:34:26;;;;;;;15.57;3.55;;;;;;;11.71;97.42;101078.03;5031629;28;20200;-71
2022/11/03 02:37:04;;;;;;;15.88;3.75;;;;;;;11.69;96.66;101072.03;5035374;28;20029;-71
2022/11/03 02:39:47;;;;;;;16.45;3.50;;;;;;;11.69;96.05;101075.56;5034921;28;20053;-70
2022/11/03 02:42:16;;;;;;;14.40;3.28;;;;;;;11.67;96.61;101071.41;5035719;28;20104;-69
2022/11/03 02:44:43;;;;;;;14.93;3.53;;;;;;;11.65;98.44;101068.09;5034306;28;20033;-70
2022/11/03 02:47:12;;;;;;;17.15;4.00;;;;;;;11.62;98.69;101061.25;5034347;28;20087;-69
2022/11/03 02:49:49;;;;;;;14.38;3.35;;;;;;;11.64;97.90;101052.88;5033578;28;20044;-70
2022/11/03 02:52:41;;;;;;;12.82;3.42;;;;;;;11.65;99.93;101052.66;5034303;28;20030;-72
2022/11/03 02:55:19;;;;;;;16.23;3.03;;;;;;;11.65;98.65;101046.41;5034017;28;20032;-71
2022/11/03 02:57:58;;;;;;;14.38;3.33;;;;;;;11.60;100.00;101043.56;5035360;28;20037;-73
2022/11/03 03:00:24;;;;;;;13.80;3.30;;;;;;;11.59;100.00;101036.50;5028013;28;20026;-71
2022/11/03 03:03:01;;;;;;;13.18;3.20;;;;;;;11.62;100.00;101036.03;5013313;28;20026;-69
2022/11/03 03:05:31;;;;;;;13.88;3.53;;;;;;;11.61;100.00;101034.38;5032367;28;20517;-70
2022/11/03 03:08:03;;;;;;;11.82;3.00;;;;;;;11.60;100.00;101025.41;5027511;28;20473;-71
2022/11/03 03:10:33;;;;;;;14.75;3.80;;;;;;;11.62;100.00;101020.59;5014890;28;20477;-72
2022/11/03 03:13:01;;;;;;;12.40;3.45;;;;;;;11.60;100.00;101017.28;5014899;28;20412;-69
2022/11/03 03:15:45;;;;;;;17.27;3.35;;;;;;;11.60;100.00;101019.19;5031903;28;20025;-69
2022/11/03 03:18:26;;;;;;;17.30;3.22;;;;;;;11.60;100.00;101014.56;5033882;28;20510;-70
2022/11/03 03:21:00;;;;;;;17.02;3.65;;;;;;;11.60;100.00;101003.75;5033638;28;20029;-71
2022/11/03 03:23:34;;;;;;;13.90;3.25;;;;;;;11.58;100.00;101002.31;5033382;28;20099;-70
2022/11/03 03:26:16;;;;;;;12.77;3.28;;;;;;;11.60;100.00;100994.78;5031529;28;20026;-72
2022/11/03 03:28:53;;;;;;;13.77;3.20;;;;;;;11.61;100.00;101004.56;5018430;28;20438;-71
2022/11/03 03:31:20;;;;;;;18.58;3.40;;;;;;;11.60;100.00;101001.03;5014776;28;20106;-73
2022/11/03 03:33:47;;;;;;;16.48;3.35;;;;;;;11.58;100.00;100997.72;5016222;28;20026;-70
2022/11/03 03:36:16;;;;;;;15.50;3.80;;;;;;;11.58;100.00;100997.72;5034291;28;20021;-70
2022/11/03 03:38:48;;;;;;;13.65;3.42;;;;;;;11.57;100.00;100989.81;5033152;28;20034;-73
2022/11/03 03:41:20;;;;;;;14.50;3.20;;;;;;;11.56;100.00;100986.25;5034265;28;20033;-73
2022/11/03 03:43:48;;;;;;;14.85;3.70;;;;;;;11.55;100.00;100992.75;5033081;28;20116;-72
2022/11/03 03:46:15;;;;;;;12.52;3.10;;;;;;;11.56;100.00;100975.44;5034200;28;20025;-70
2022/11/03 03:48:41;;;;;;;15.27;3.30;;;;;;;11.57;100.00;100971.66;5033299;28;20030;-69
2022/11/03 03:51:09;;;;;;;17.52;3.75;;;;;;;11.58;100.00;100964.34;5016623;28;20033;-71
2022/11/03 03:53:34;;;;;;;10.88;2.97;;;;;;;11.59;100.00;100961.41;5014852;28;20030;-72
2022/11/03 03:55:59;;;;;;;13.43;3.38;;;;;;;11.60;100.00;100956.84;5033205;28;20112;-73
2022/11/03 03:58:25;;;;;;;13.80;3.95;;;;;;;11.60;100.00;100954.94;5033994;28;20353;-69
2022/11/03 04:00:50;;;;;;;11.70;3.13;;;;;;;11.61;100.00;100958.47;5031961;28;20056;-73
2022/11/03 04:03:21;;;;;;;11.05;3.05;;;;;;;11.63;100.00;100959.91;5033627;28;20112;-70
2022/11/03 04:05:47;;;;;;;15.35;3.63;;;;;;;11.62;100.00;100958.25;5032390;28;20108;-68
2022/11/03 04:08:13;;;;;;;14.93;3.33;;;;;;;11.63;100.00;100959.91;5033854;28;20035;-70
2022/11/03 04:10:39;;;;;;;17.15;4.18;;;;;;;11.64;100.00;100968.84;5032529;28;20025;-70
2022/11/03 04:24:01;;;;;;;14.40;3.80;;;;;;;11.63;100.00;100946.34;5032511;28;20040;-71
2022/11/03 04:26:27;;;;;;;16.35;3.22;;;;;;;11.64;100.00;100939.03;5032395;28;20104;-71
2022/11/03 04:28:53;;;;;;;15.43;3.17;;;;;;;11.63;100.00;100934.69;5033304;28;20466;-70
2022/11/03 04:31:19;;;;;;;14.65;3.50;;;;;;;11.68;100.00;100932.13;5033146;28;20377;-71
2022/11/03 04:33:46;;;;;;;11.45;3.33;;;;;;;11.65;100.00;100927.16;5030485;28;20025;-72
2022/11/03 04:36:21;;;;;;;15.82;3.30;;;;;;;11.66;100.00;100932.34;5033322;28;20104;-73
2022/11/03 04:38:48;;;;;;;14.38;3.60;;;;;;;11.66;100.00;100928.81;5033453;28;20029;-73
2022/11/03 04:41:18;;;;;;;12.15;3.40;;;;;;;11.72;100.00;100929.78;5033085;28;20033;-69
2022/11/03 04:43:45;;;;;;;14.07;3.67;;;;;;;11.69;100.00;100931.06;5032352;28;20029;-72
2022/11/03 04:46:14;;;;;;;13.98;3.47;;;;;;;11.65;100.00;100921.72;5032464;28;20029;-71
2022/11/03 04:48:40;;;;;;;15.80;3.50;;;;;;;11.70;100.00;100919.19;5020879;28;20377;-71
2022/11/03 04:51:17;;;;;;;16.10;3.42;;;;;;;11.70;100.00;100916.47;5013468;28;20420;-71
2022/11/03 04:54:01;;;;;;;11.93;3.00;;;;;;;11.72;100.00;100910.81;5013564;28;20026;-72
2022/11/03 04:56:26;;;;;;;10.70;3.10;;;;;;;11.72;100.00;100900.78;5032795;28;20032;-74
2022/11/03 04:58:52;;;;;;;12.05;3.25;;;;;;;11.73;100.00;100904.31;5033058;28;20407;-70
2022/11/03 05:01:20;;;;;;;14.00;3.45;;;;;;;11.72;100.00;100895.38;5030313;28;20025;-74
2022/11/03 05:03:49;;;;;;;16.13;3.35;;;;;;;11.73;100.00;100888.03;5029423;28;20033;-73
2022/11/03 05:06:17;;;;;;;15.65;3.33;;;;;;;11.74;100.00;100895.13;5031525;28;20084;-71
2022/11/03 05:08:45;;;;;;;13.40;3.47;;;;;;;11.72;100.00;100892.66;5032913;28;20049;-71
2022/11/03 05:11:30;;;;;;;11.48;3.10;;;;;;;11.75;100.00;100889.47;5033124;28;20108;-73
2022/11/03 05:14:02;;;;;;;13.70;3.58;;;;;;;11.75;100.00;100877.81;5031326;28;20124;-69
2022/11/03 05:16:27;;;;;;;14.15;3.08;;;;;;;11.73;100.00;100875.34;5032580;28;20111;-72
2022/11/03 05:18:52;;;;;;;11.93;3.42;;;;;;;11.75;100.00;100877.81;5032029;28;20116;-70
2022/11/03 05:21:21;;;;;;;15.13;3.45;;;;;;;11.73;100.00;100875.34;5032214;28;20036;-74
2022/11/03 05:23:53;;;;;;;11.65;3.60;;;;;;;11.73;100.00;100864.50;5031911;28;20036;-71
2022/11/03 05:26:23;;;;;;;11.20;3.40;;;;;;;11.72;100.00;100865.53;5031455;28;20535;-73
2022/11/03 05:28:58;;;;;;;14.88;3.35;;;;;;;11.76;100.00;100857.75;5032172;28;20053;-72
2022/11/03 05:31:27;;;;;;;13.38;3.10;;;;;;;11.77;100.00;100860.25;5032695;28;20026;-68
2022/11/03 05:33:57;;;;;;;16.42;3.72;;;;;;;11.78;100.00;100851.06;5013609;28;20450;-71
2022/11/03 05:36:24;;;;;;;14.57;3.63;;;;;;;11.80;100.00;100843.50;5032461;28;20036;-70
2022/11/03 05:38:57;;;;;;;16.88;3.42;;;;;;;11.81;100.00;100856.00;5032546;28;20033;-71
2022/11/03 05:41:25;;;;;;;14.57;3.75;;;;;;;11.83;100.00;100842.22;5032388;28;20052;-72
2022/11/03 05:43:57;;;;;;;12.77;3.70;;;;;;;11.79;100.00;100836.44;5031223;28;20112;-70
2022/11/03 05:46:26;;;;;;;18.17;3.70;;;;;;;11.79;100.00;100828.31;5011749;28;20029;-73
2022/11/03 05:48:51;;;;;;;12.52;3.95;;;;;;;11.81;100.00;100831.59;5022968;28;20083;-74
2022/11/03 05:51:52;;;;;;;15.63;3.33;;;;;;;11.83;100.00;100824.06;5032448;28;20025;-71
2022/11/03 05:54:27;;;;;;;13.02;3.47;;;;;;;11.83;100.00;100828.66;5030131;28;20543;-69
2022/11/03 05:56:55;;;;;;;15.27;3.70;;;;;;;11.81;100.00;100818.06;5044235;28;20069;-71
2022/11/03 05:59:23;;;;;;;14.10;3.45;;;;;;;11.84;100.00;100816.78;5034813;28;20033;-71
2022/11/03 06:01:52;;;;;;;13.20;3.30;;;;;;;11.84;100.00;100819.47;5033960;28;20030;-73
2022/11/03 06:04:21;;;;;;;11.93;3.55;;;;;;;11.80;100.00;100815.56;5034712;28;20112;-73
2022/11/03 06:07:02;;;;;;;12.50;3.78;;;;;;;11.82;100.00;100808.03;5034019;28;20029;-72
2022/11/03 06:09:30;;;;;;;12.63;3.73;;;;;;;11.82;100.00;100803.44;5034693;28;20025;-72
2022/11/03 06:11:58;;;;;;;15.68;3.33;;;;;;;11.80;100.00;100808.25;5034819;28;20475;-72
2022/11/03 06:14:25;;;;;;;12.07;3.40;;;;;;;11.81;100.00;100799.06;5035903;28;20021;-71
2022/11/03 06:16:58;;;;;;;13.18;3.28;;;;;;;11.81;100.00;100796.38;5035123;28;20036;-69
2022/11/03 06:19:30;;;;;;;10.80;3.25;;;;;;;11.81;100.00;100790.94;5035030;28;20029;-72
2022/11/03 06:22:28;;;;;;;12.63;3.70;;;;;;;11.84;100.00;100801.31;5035686;28;20480;-72
2022/11/03 06:25:17;;;;;;;17.30;3.80;;;;;;;11.87;100.00;100794.59;5036066;28;20366;-71
2022/11/03 06:27:42;;;;;;;16.40;4.15;;;;;;;11.83;100.00;100791.53;5034838;28;20056;-73
2022/11/03 06:30:33;;;;;;;11.30;3.00;;;;;;;11.85;100.00;100784.00;5034869;28;20081;-72
2022/11/03 06:33:21;;;;;;;16.45;4.20;;;;;;;11.87;100.00;100789.19;5039981;28;20025;-67
2022/11/03 06:35:50;;;;;;;12.57;3.30;;;;;;;11.87;100.00;100790.00;5043494;28;20067;-68
2022/11/03 06:38:22;;;;;;;15.02;3.97;;;;;;;11.87;100.00;100787.28;5037544;28;20017;-71
2022/11/03 06:40:50;;;;;;;15.27;3.90;;;;;;;11.86;100.00;100774.78;5034174;28;20032;-70
2022/11/03 06:43:19;;;;;;;13.07;3.78;;;;;;;11.88;100.00;100778.09;5035563;28;20029;-72
2022/11/03 06:45:50;;;;;;;12.60;3.30;;;;;;;11.89;100.00;100770.78;5025399;28;20060;-71
2022/11/03 06:48:22;;;;;;;12.25;3.13;;;;;;;11.87;100.00;100768.31;5028279;28;20361;-72
2022/11/03 06:50:47;;;;;;;14.18;3.33;;;;;;;11.91;100.00;100767.84;5033162;28;20026;-69
2022/11/03 06:53:20;;;;;;;12.77;3.28;;;;;;;11.88;100.00;100761.84;5035286;28;20033;-72
2022/11/03 06:55:47;;;;;;;14.32;3.42;;;;;;;11.90;100.00;100772.44;5035132;28;20132;-71
2022/11/03 06:58:22;;;;;;;14.90;3.20;;;;;;;11.88;100.00;100772.69;5034545;28;20026;-74
2022/11/03 07:00:48;;;;;;;17.08;4.28;;;;;;;11.89;100.00;100766.16;5030939;28;20112;-69
2022/11/03 07:03:23;;;;;;;12.63;3.60;;;;;;;11.86;100.00;100766.66;5035030;28;20520;-71
2022/11/03 07:05:48;;;;;;;15.63;3.08;;;;;;;11.88;100.00;100763.69;5035015;28;20468;-72
2022/11/03 07:08:34;;;;;;;11.82;3.90;;;;;;;11.91;100.00;100760.50;5033046;28;20033;-69
2022/11/03 07:11:17;;;;;;;15.75;3.80;;;;;;;11.92;100.00;100758.66;5035032;28;20346;-73
2022/11/03 07:13:42;;;;;;;14.13;3.65;;;;;;;11.92;100.00;100753.22;5034311;28;20418;-74
2022/11/03 07:16:28;;;;;;;15.02;4.55;;;;;;;11.94;100.00;100746.53;5033738;28;20029;-73
2022/11/03 07:18:55;;;;;;;13.30;3.30;;;;;;;11.93;100.00;100750.31;5033629;28;20021;-72
2022/11/03 07:21:23;;;;;;;14.80;4.15;;;;;;;11.96;100.00;100754.44;5035119;28;20055;-71
2022/11/03 07:23:49;;;;;;;13.20;3.88;;;;;;;11.96;100.00;100751.72;5034663;28;20469;-73
2022/11/03 07:26:14;;;;;;;14.70;3.60;;;;;;;11.97;100.00;100748.78;5034747;28;20041;-73
2022/11/03 07:28:40;;;;;;;14.40;3.53;;;;;;;11.98;100.00;100744.16;5033334;28;20091;-71
2022/11/03 07:31:14;;;;;;;11.50;3.55;;;;;;;11.99;100.00;100735.78;5034197;28;20037;-71
2022/11/03 07:33:40;;;;;;;11.60;3.20;;;;;;;12.01;100.00;100730.94;5033626;28;20033;-70
2022/11/03 07:36:05;;;;;;;14.93;3.58;;;;;;;12.02;100.00;100731.78;5034238;28;20420;-72
2022/11/03 07:38:32;;;;;;;10.45;2.97;;;;;;;12.05;100.00;100731.31;5032786;28;20115;-74
2022/11/03 07:40:59;;;;;;;13.48;3.22;;;;;;;12.05;100.00;100725.91;5033212;28;20461;-69
2022/11/03 07:43:30;;;;;;;12.68;3.35;;;;;;;12.05;100.00;100729.41;5034458;28;20030;-72
2022/11/03 07:45:58;;;;;;;15.68;3.72;;;;;;;12.09;100.00;100735.19;5033187;28;20116;-72
2022/11/03 07:48:25;;;;;;;11.02;3.00;;;;;;;12.10;100.00;100734.13;5030621;28;20033;-71
2022/11/03 07:50:54;;;;;;;12.30;3.28;;;;;;;12.10;100.00;100736.84;5034079;28;20057;-73
2022/11/03 07:53:39;;;;;;;12.57;3.25;;;;;;;12.15;100.00;100730.69;5034191;28;20036;-70
2022/11/03 07:56:23;;;;;;;16.95;3.47;;;;;;;12.16;100.00;100735.88;5034489;28;20100;-71
2022/11/03 07:59:10;;;;;;;17.15;3.72;;;;;;;12.18;100.00;100746.50;5032942;28;20028;-72
2022/11/03 08:01:39;;;;;;;12.63;3.40;;;;;;;12.17;100.00;100742.16;5018301;28;20412;-71
2022/11/03 08:04:12;;;;;;;12.60;2.97;;;;;;;12.17;100.00;100734.84;5032820;28;20159;-72
2022/11/03 08:06:37;;;;;;;11.68;3.10;;;;;;;12.17;100.00;100726.69;5032362;28;20055;-74
2022/11/03 08:09:03;;;;;;;12.00;3.22;;;;;;;12.19;100.00;100719.13;5032956;28;20025;-71
2022/11/03 08:11:29;;;;;;;13.23;3.25;;;;;;;12.20;100.00;100711.84;5033683;28;20072;-72
2022/11/03 08:13:54;;;;;;;12.38;3.03;;;;;;;12.22;100.00;100720.56;5033730;28;20441;-73
2022/11/03 08:16:20;;;;;;;14.50;3.10;;;;;;;12.25;100.00;100714.66;5033002;28;20041;-73
2022/11/03 08:18:45;;;;;;;14.85;3.08;;;;;;;12.23;100.00;100698.59;5032572;28;20044;-73
2022/11/03 08:21:11;;;;;;;10.10;2.75;;;;;;;12.27;100.00;100696.22;5031697;28;20108;-73
2022/11/03 08:23:37;;;;;;;13.43;3.20;;;;;;;12.29;100.00;100680.56;5031995;28;20029;-71
2022/11/03 08:26:02;;;;;;;13.05;2.67;;;;;;;12.31;100.00;100680.31;5033495;28;20032;-71
2022/11/03 08:28:28;;;;;;;10.23;2.97;;;;;;;12.32;100.00;100671.94;5031583;28;20025;-71
2022/11/03 08:30:53;;;;;;;12.63;3.30;;;;;;;12.33;100.00;100668.13;5026799;28;20033;-73
2022/11/03 08:33:19;;;;;;;11.27;2.90;;;;;;;12.34;100.00;100663.53;5028893;28;20053;-72
2022/11/03 08:35:44;;;;;;;10.95;2.80;;;;;;;12.36;100.00;100647.84;5013437;28;20022;-71
2022/11/03 08:38:09;;;;;;;13.75;3.17;;;;;;;12.40;100.00;100649.00;5028532;28;20424;-73
2022/11/03 08:40:34;;;;;;;11.65;2.88;;;;;;;12.42;100.00;100641.44;5016026;28;20116;-73
2022/11/03 08:43:03;;;;;;;13.07;3.30;;;;;;;12.45;100.00;100632.00;5033350;28;20109;-71
2022/11/03 08:45:29;;;;;;;10.70;3.15;;;;;;;12.47;100.00;100611.69;5029909;28;20096;-71
2022/11/03 08:47:55;;;;;;;10.80;3.00;;;;;;;12.49;100.00;100606.03;5033063;28;20025;-75
2022/11/03 08:50:21;;;;;;;13.02;3.58;;;;;;;12.51;100.00;100607.41;5032176;28;20465;-73
2022/11/03 08:52:46;;;;;;;10.20;3.42;;;;;;;12.52;100.00;100600.94;5032903;28;20064;-73
2022/11/03 08:55:11;;;;;;;13.55;3.33;;;;;;;12.57;100.00;100598.28;5033090;28;20025;-70
2022/11/03 08:57:37;;;;;;;10.68;2.70;;;;;;;12.63;100.00;100598.41;5032880;28;20021;-71
2022/11/03 09:00:04;;;;;;;11.68;3.10;;;;;;;12.67;100.00;100602.28;5030092;28;20022;-71
2022/11/03 09:02:30;;;;;;;10.68;2.97;;;;;;;12.69;100.00;100581.13;5028297;28;20026;-74
2022/11/03 09:04:55;;;;;;;10.35;2.78;;;;;;;12.73;100.00;100569.53;5031204;28;20021;-73
2022/11/03 09:07:20;;;;;;;11.65;2.80;;;;;;;12.77;100.00;100565.25;5032504;28;20037;-71
2022/11/03 09:09:46;;;;;;;10.00;2.63;;;;;;;12.81;96.98;100565.56;5032277;28;20029;-73
2022/11/03 09:12:11;;;;;;;13.27;3.05;;;;;;;12.85;97.26;100555.88;5031273;28;20033;-72
2022/11/03 09:14:37;;;;;;;12.70;2.85;;;;;;;12.89;96.36;100554.31;5032212;28;20033;-71
2022/11/03 09:17:02;;;;;;;14.43;3.30;;;;;;;12.92;96.20;100556.53;5031079;28;20025;-71
2022/11/03 09:19:27;;;;;;;11.50;2.70;;;;;;;12.97;96.43;100530.50;5031747;28;20079;-71
2022/11/03 09:21:52;;;;;;;9.52;2.88;;;;;;;12.99;95.48;100522.94;5031076;28;20082;-72
2022/11/03 09:24:18;;;;;;;11.95;2.95;;;;;;;13.00;96.06;100505.56;5030789;28;20017;-72
2022/11/03 09:26:43;;;;;;;10.60;2.70;;;;;;;13.03;93.83;100499.63;5031757;28;20029;-75
2022/11/03 09:29:08;;;;;;;10.63;2.60;;;;;;;13.06;94.05;100496.44;5032164;28;20046;-72
2022/11/03 09:31:33;;;;;;;12.15;2.67;;;;;;;13.07;91.98;100490.75;5030053;28;20095;-75
2022/11/03 09:33:59;;;;;;;13.00;2.53;;;;;;;13.10;91.54;100492.13;5030037;28;20037;-72
2022/11/03 09:36:24;;;;;;;8.95;2.45;;;;;;;13.10;90.99;100486.69;5029966;28;20032;-73
2022/11/03 09:38:49;;;;;;;10.07;2.42;;;;;;;13.15;91.57;100489.50;5030704;28;20475;-73
2022/11/03 09:41:18;;;;;;;9.65;2.70;;;;;;;13.16;89.83;100477.53;5029695;28;20037;-73
2022/11/03 09:43:44;;;;;;;9.32;2.55;;;;;;;13.17;89.53;100476.47;5031747;28;20061;-74
2022/11/03 09:46:11;;;;;;;13.15;2.97;;;;;;;13.18;89.26;100464.53;5029807;28;20091;-77
2022/11/03 09:48:37;;;;;;;13.93;3.10;;;;;;;13.20;89.46;100470.53;5012013;28;20071;-72
2022/11/03 09:51:02;;;;;;;10.02;3.10;;;;;;;13.20;88.60;100462.38;5014480;28;20112;-71
2022/11/03 09:53:29;;;;;;;9.20;2.90;;;;;;;13.22;89.45;100464.84;5011911;28;20095;-73
2022/11/03 09:55:54;;;;;;;12.05;3.10;;;;;;;13.22;89.56;100456.69;5012210;28;20076;-74
2022/11/03 09:58:20;;;;;;;8.80;2.55;;;;;;;13.22;87.43;100457.50;5012496;28;20458;-72
2022/11/03 10:00:45;;;;;;;10.40;2.35;;;;;;;13.23;87.98;100452.91;5042267;28;20041;-74
2022/11/03 10:03:12;;;;;;;12.20;3.08;;;;;;;13.23;87.54;100440.16;5011354;28;20108;-73
2022/11/03 10:05:39;;;;;;;6.90;2.30;;;;;;;13.25;88.64;100451.56;5012323;28;20025;-72
2022/11/03 10:08:10;;;;;;;9.57;2.58;;;;;;;13.24;90.45;100435.53;5012232;28;20033;-74
2022/11/03 10:10:36;;;;;;;11.80;2.88;;;;;;;13.24;88.00;100433.66;5011967;28;20052;-72
2022/11/03 10:13:07;;;;;;;11.13;3.28;;;;;;;13.24;90.03;100421.94;5031705;28;20026;-74
2022/11/03 10:15:33;;;;;;;8.85;2.50;;;;;;;13.24;88.96;100425.50;5032176;28;20028;-74
2022/11/03 10:17:59;;;;;;;7.13;2.35;;;;;;;13.23;89.03;100417.59;5031769;28;20084;-72
2022/11/03 10:20:27;;;;;;;14.52;3.10;;;;;;;13.24;88.20;100414.63;5032077;28;20064;-73
2022/11/03 10:22:54;;;;;;;12.00;2.65;;;;;;;13.25;89.27;100418.97;5030043;28;20039;-72
2022/11/03 10:25:38;;;;;;;14.00;3.25;;;;;;;13.26;87.68;100414.38;5032924;28;20395;-74
2022/11/03 10:28:16;;;;;;;11.43;2.72;;;;;;;13.26;87.51;100408.94;5029286;28;20063;-73
2022/11/03 10:30:51;;;;;;;8.82;2.58;;;;;;;13.29;86.68;100411.94;5030675;28;20045;-73
2022/11/03 10:33:31;;;;;;;9.73;2.80;;;;;;;13.33;85.60;100400.56;5011814;28;20033;-74
2022/11/03 10:35:58;;;;;;;9.40;2.80;;;;;;;13.36;86.51;100405.53;5011338;28;20030;-72
2022/11/03 10:38:31;;;;;;;10.90;3.03;;;;;;;13.39;87.05;100395.00;5011832;28;20101;-72
2022/11/03 10:41:15;;;;;;;8.82;2.60;;;;;;;13.44;85.78;100383.34;5012983;28;20052;-73
2022/11/03 10:43:58;;;;;;;9.68;2.83;;;;;;;13.49;83.99;100390.75;5031672;28;20142;-74
2022/11/03 10:46:24;;;;;;;8.77;2.55;;;;;;;13.51;84.50;100378.50;5034884;28;20457;-73
2022/11/03 10:49:17;;;;;;;10.18;3.20;;;;;;;13.59;85.03;100379.97;5034702;28;20079;-72
2022/11/03 10:51:46;;;;;;;7.05;2.58;;;;;;;13.61;83.28;100377.81;5033226;28;20037;-79
2022/11/03 10:54:15;;;;;;;9.23;2.67;;;;;;;13.64;81.50;100367.22;5033699;28;20033;-78
2022/11/03 10:56:41;;;;;;;10.00;2.42;;;;;;;13.69;82.03;100366.44;5034928;28;20104;-75
2022/11/03 10:59:15;;;;;;;11.63;2.67;;;;;;;13.73;80.02;100369.50;5034613;28;20109;-75
2022/11/03 11:01:40;;;;;;;9.93;2.42;;;;;;;13.78;79.43;100364.09;5022395;28;20346;-74
2022/11/03 11:04:06;;;;;;;8.00;2.92;;;;;;;13.81;79.12;100358.13;5024743;28;20075;-74
2022/11/03 11:06:32;;;;;;;8.07;2.70;;;;;;;13.86;79.21;100351.91;5033201;28;20029;-72
2022/11/03 11:09:03;;;;;;;8.20;2.42;;;;;;;13.89;79.25;100341.38;5022868;28;20025;-75
2022/11/03 11:11:28;;;;;;;11.18;2.40;;;;;;;13.92;77.27;100351.72;5032442;28;20468;-72
2022/11/03 11:14:20;;;;;;;10.32;2.75;;;;;;;13.94;79.12;100346.81;5031513;28;20034;-74
2022/11/03 11:16:48;;;;;;;10.45;2.50;;;;;;;13.93;79.07;100342.47;5031708;28;20021;-71
2022/11/03 11:19:14;;;;;;;9.48;2.40;;;;;;;13.96;78.94;100341.13;5033935;28;20107;-73
2022/11/03 11:21:39;;;;;;;6.72;2.83;;;;;;;13.98;77.96;100339.78;5033171;28;20096;-72
2022/11/03 11:24:09;;;;;;;5.25;2.40;;;;;;;14.00;77.65;100326.75;5034326;28;20036;-73
2022/11/03 11:26:34;;;;;;;9.65;2.50;;;;;;;14.02;77.08;100322.94;5033092;28;20033;-73
2022/11/03 11:29:12;;;;;;;10.35;2.50;;;;;;;14.06;78.09;100321.34;5014771;28;20041;-74
2022/11/03 11:31:44;;;;;;;8.65;2.42;;;;;;;14.09;78.33;100305.31;5014417;28;20017;-75
2022/11/03 11:34:11;;;;;;;9.75;2.55;;;;;;;14.12;75.62;100295.81;5014048;28;20401;-73
2022/11/03 11:36:41;;;;;;;7.80;2.60;;;;;;;14.14;75.34;100291.75;5030076;28;20036;-74
2022/11/03 11:39:21;;;;;;;9.63;2.25;;;;;;;14.21;76.29;100288.00;5029169;28;20027;-74
2022/11/03 11:42:10;;;;;;;11.40;2.65;;;;;;;14.22;75.16;100285.00;5031438;28;20029;-74
2022/11/03 11:44:45;;;;;;;10.10;2.85;;;;;;;14.23;75.19;100270.28;5030273;28;20025;-73
2022/11/03 11:47:39;;;;;;;6.45;2.45;;;;;;;14.27;75.58;100265.97;5015778;28;20038;-75